Time;durP1;ratioP1;P1;durP2;ratioP2;P2;SDS_P1;SDS_P2;PMS_P1;PMS_P2;Temp;Humidity;BMP_temperature;BMP_pressure;BME280_temperature;BME280_humidity;BME280_pressure;Samples;Min_cycle;Max_cycle;Signal;HPM_P1;HPM_P2
2020/12/27 00:02:24;;;;;;;2.00;1.90;;;5.70;75.50;;;;;;8217303;28;20806;-76
2020/12/27 00:06:44;;;;;;;2.03;1.93;;;5.60;75.50;;;;;;8216858;28;21282;-75
2020/12/27 00:10:51;;;;;;;8.77;2.50;;;5.60;75.60;;;;;;8232890;28;20444;-75
2020/12/27 00:14:57;;;;;;;6.60;2.70;;;5.70;75.70;;;;;;8216800;28;20856;-75
2020/12/27 00:19:09;;;;;;;2.13;1.97;;;5.70;76.40;;;;;;8218238;28;20808;-76
2020/12/27 00:23:15;;;;;;;1.77;1.57;;;5.60;75.70;;;;;;8215851;28;20471;-75
2020/12/27 00:27:22;;;;;;;2.07;1.97;;;5.70;75.60;;;;;;8202172;28;20848;-75
2020/12/27 00:31:28;;;;;;;1.90;1.80;;;5.70;75.50;;;;;;8216153;28;21024;-75
2020/12/27 00:35:37;;;;;;;1.93;1.83;;;5.70;74.90;;;;;;8227446;28;20577;-75
2020/12/27 00:39:43;;;;;;;2.33;1.43;;;5.70;75.00;;;;;;8221026;28;20479;-75
2020/12/27 00:43:52;;;;;;;2.23;2.13;;;5.70;74.80;;;;;;8224001;28;21019;-76
2020/12/27 00:48:01;;;;;;;2.27;2.13;;;5.70;75.10;;;;;;8222986;28;20464;-75
2020/12/27 00:52:03;;;;;;;2.87;2.30;;;5.70;74.80;;;;;;8232842;28;20504;-74
2020/12/27 00:56:12;;;;;;;2.20;2.00;;;5.70;75.00;;;;;;8224328;28;20918;-74
2020/12/27 01:00:25;;;;;;;2.50;2.30;;;5.70;75.00;;;;;;8240472;28;20492;-75
2020/12/27 01:04:28;;;;;;;1.83;1.73;;;5.70;75.20;;;;;;8211435;28;20496;-75
2020/12/27 01:08:34;;;;;;;2.93;2.00;;;5.70;75.10;;;;;;8223083;28;20785;-76
2020/12/27 01:12:46;;;;;;;1.80;1.70;;;5.70;75.20;;;;;;8217012;28;20483;-77
2020/12/27 01:16:50;;;;;;;2.50;2.40;;;5.80;74.70;;;;;;8209918;28;20460;-75
2020/12/27 01:20:54;;;;;;;2.23;2.10;;;5.80;74.60;;;;;;8198822;28;20502;-75
2020/12/27 01:25:01;;;;;;;3.57;1.90;;;5.80;74.50;;;;;;8230500;28;20432;-75
2020/12/27 01:29:10;;;;;;;2.00;1.90;;;5.80;74.00;;;;;;8216250;28;20989;-76
2020/12/27 01:33:32;;;;;;;3.50;1.80;;;5.80;73.50;;;;;;8224934;28;20459;-74
2020/12/27 01:37:34;;;;;;;1.73;1.30;;;5.80;73.00;;;;;;8215902;28;20459;-75
2020/12/27 01:41:38;;;;;;;1.23;1.23;;;5.80;72.80;;;;;;8212197;28;20476;-74
2020/12/27 01:45:46;;;;;;;1.40;1.30;;;5.90;72.40;;;;;;8216461;28;20476;-74
2020/12/27 01:49:54;;;;;;;1.43;1.33;;;5.90;72.30;;;;;;8219663;28;20489;-74
2020/12/27 01:53:56;;;;;;;1.50;1.40;;;5.90;72.30;;;;;;8239574;28;20459;-74
2020/12/27 01:58:15;;;;;;;1.60;1.50;;;5.90;72.10;;;;;;8214254;28;20473;-74
2020/12/27 02:02:17;;;;;;;1.30;1.30;;;5.90;71.70;;;;;;8219191;28;20494;-75
2020/12/27 02:06:28;;;;;;;1.30;1.20;;;5.90;71.80;;;;;;8223821;28;20503;-74
2020/12/27 02:10:35;;;;;;;1.17;1.17;;;5.90;71.40;;;;;;8220062;28;20824;-75
2020/12/27 02:14:38;;;;;;;3.03;2.03;;;5.90;71.50;;;;;;8220092;28;20952;-74
2020/12/27 02:18:42;;;;;;;1.83;1.40;;;5.90;71.70;;;;;;8223198;28;20459;-75
2020/12/27 02:22:43;;;;;;;1.50;1.40;;;5.90;71.80;;;;;;8214626;28;20487;-75
2020/12/27 02:27:03;;;;;;;2.63;1.70;;;5.90;71.90;;;;;;8233786;28;21034;-74
2020/12/27 02:31:20;;;;;;;1.23;1.13;;;5.80;72.10;;;;;;8228297;28;20477;-76
2020/12/27 02:35:31;;;;;;;1.33;1.23;;;5.90;71.90;;;;;;8237021;28;20486;-74
2020/12/27 02:39:32;;;;;;;3.20;1.60;;;5.80;71.50;;;;;;8218384;28;20457;-74
2020/12/27 02:43:39;;;;;;;1.30;1.20;;;5.80;71.90;;;;;;8219207;28;20476;-74
2020/12/27 02:47:44;;;;;;;3.43;1.50;;;5.80;72.10;;;;;;8217725;28;20198;-74
2020/12/27 02:51:49;;;;;;;1.97;1.67;;;5.80;71.70;;;;;;8229266;28;20491;-74
2020/12/27 02:55:57;;;;;;;1.73;1.63;;;5.80;71.50;;;;;;8234107;28;20987;-75
2020/12/27 03:00:04;;;;;;;1.30;1.30;;;5.80;72.20;;;;;;8218485;28;21008;-75
2020/12/27 03:04:05;;;;;;;1.30;0.93;;;5.90;71.50;;;;;;8232319;28;20453;-75
2020/12/27 03:08:11;;;;;;;1.30;1.30;;;5.90;71.60;;;;;;8214806;28;20452;-75
2020/12/27 03:12:25;;;;;;;1.67;1.57;;;5.90;71.60;;;;;;8230945;28;20200;-75
2020/12/27 03:16:30;;;;;;;2.40;1.40;;;5.90;71.60;;;;;;8220281;28;20447;-75
2020/12/27 03:20:32;;;;;;;1.93;1.40;;;5.90;71.50;;;;;;8198141;28;20554;-73
2020/12/27 03:24:32;;;;;;;1.33;1.23;;;5.90;71.10;;;;;;8215330;28;20451;-74
2020/12/27 03:28:33;;;;;;;1.00;0.90;;;6.00;71.50;;;;;;8215812;28;20444;-73
2020/12/27 03:32:35;;;;;;;1.37;1.00;;;6.00;70.90;;;;;;8217400;28;20225;-74
2020/12/27 03:36:42;;;;;;;2.17;1.43;;;6.00;71.10;;;;;;8221079;28;20559;-74
2020/12/27 03:40:53;;;;;;;0.87;0.87;;;5.90;70.80;;;;;;8214404;28;20910;-74
2020/12/27 03:45:05;;;;;;;1.07;0.97;;;5.90;70.70;;;;;;8235070;28;20964;-74
2020/12/27 03:49:06;;;;;;;2.87;1.23;;;5.90;70.80;;;;;;8217040;28;20460;-74
2020/12/27 03:53:14;;;;;;;0.80;0.80;;;5.90;70.90;;;;;;8220454;28;22125;-74
2020/12/27 03:57:29;;;;;;;1.10;1.10;;;5.90;71.20;;;;;;8237500;28;20797;-74
2020/12/27 04:01:33;;;;;;;0.80;0.80;;;5.90;71.30;;;;;;8211058;28;20835;-74
2020/12/27 04:05:33;;;;;;;1.80;0.80;;;5.90;71.50;;;;;;8214960;28;20495;-75
2020/12/27 04:09:38;;;;;;;0.87;0.80;;;5.90;71.60;;;;;;8231898;28;20440;-74
2020/12/27 04:13:41;;;;;;;1.07;0.90;;;5.90;71.70;;;;;;8187069;28;20462;-75
2020/12/27 04:17:45;;;;;;;0.80;0.80;;;5.90;71.90;;;;;;8209766;28;20232;-74
2020/12/27 04:21:46;;;;;;;0.80;0.80;;;5.90;71.70;;;;;;8199632;28;20484;-75
2020/12/27 04:25:47;;;;;;;1.00;1.00;;;5.90;71.40;;;;;;8214863;28;20467;-75
2020/12/27 04:29:48;;;;;;;1.37;1.27;;;6.00;71.50;;;;;;8213498;28;21172;-75
2020/12/27 04:33:54;;;;;;;0.83;0.80;;;6.00;71.40;;;;;;8205512;28;20284;-74
2020/12/27 04:38:00;;;;;;;1.80;1.63;;;6.00;71.10;;;;;;8217141;28;20455;-75
2020/12/27 04:42:05;;;;;;;0.87;0.80;;;6.00;71.60;;;;;;8228953;28;20467;-75
2020/12/27 04:46:07;;;;;;;1.30;1.20;;;6.00;71.70;;;;;;8216317;28;20673;-75
2020/12/27 04:50:17;;;;;;;1.03;0.90;;;6.00;71.80;;;;;;8232117;28;20200;-75
2020/12/27 04:54:26;;;;;;;0.90;0.90;;;6.10;71.60;;;;;;8233700;28;20457;-75
2020/12/27 04:58:32;;;;;;;0.70;0.70;;;6.10;71.50;;;;;;8210062;28;20464;-75
2020/12/27 05:02:37;;;;;;;1.10;1.00;;;6.10;71.10;;;;;;8213761;28;20503;-75
2020/12/27 05:06:44;;;;;;;0.80;0.80;;;6.20;71.40;;;;;;8206528;28;20472;-75
2020/12/27 05:10:46;;;;;;;0.80;0.80;;;6.10;71.60;;;;;;8209797;28;20492;-74
2020/12/27 05:14:48;;;;;;;0.90;0.90;;;6.10;72.00;;;;;;8213145;28;20464;-74
2020/12/27 05:18:52;;;;;;;1.20;1.20;;;6.10;72.20;;;;;;8216360;28;20456;-75
2020/12/27 05:23:03;;;;;;;1.20;1.10;;;6.00;72.20;;;;;;8211383;28;20928;-75
2020/12/27 05:27:08;;;;;;;1.30;1.20;;;6.00;72.20;;;;;;8231378;28;20456;-74
2020/12/27 05:31:17;;;;;;;1.00;1.00;;;6.10;72.20;;;;;;8216737;28;20455;-74
2020/12/27 05:35:26;;;;;;;0.90;0.80;;;6.10;72.40;;;;;;8227994;28;20504;-75
2020/12/27 05:39:32;;;;;;;1.33;1.23;;;6.10;72.30;;;;;;8243753;28;20526;-74
2020/12/27 05:43:39;;;;;;;0.80;0.80;;;6.10;72.20;;;;;;8229817;28;20538;-74
2020/12/27 05:47:47;;;;;;;0.70;0.70;;;6.10;72.20;;;;;;8239204;28;20436;-74
2020/12/27 05:51:58;;;;;;;1.83;0.73;;;6.10;72.20;;;;;;8234514;28;20532;-75
2020/12/27 05:56:00;;;;;;;3.90;1.10;;;6.20;72.10;;;;;;8224937;28;20452;-74
2020/12/27 06:00:05;;;;;;;2.40;1.00;;;6.20;72.30;;;;;;8232962;28;20467;-74
2020/12/27 06:04:35;;;;;;;1.63;0.80;;;6.20;73.10;;;;;;8206863;28;20610;-74
2020/12/27 06:09:06;;;;;;;0.73;0.73;;;6.20;72.50;;;;;;8214503;28;20972;-74
2020/12/27 06:13:34;;;;;;;0.70;0.70;;;6.20;72.30;;;;;;8244468;28;20472;-74
2020/12/27 06:17:51;;;;;;;0.70;0.70;;;6.20;72.50;;;;;;8230990;28;20444;-75
2020/12/27 06:22:06;;;;;;;1.37;0.60;;;6.10;72.40;;;;;;8220584;28;20831;-75
2020/12/27 06:26:07;;;;;;;0.60;0.60;;;6.20;72.60;;;;;;8221995;28;22074;-74
2020/12/27 06:30:22;;;;;;;0.90;0.73;;;6.20;72.30;;;;;;8218091;28;20451;-74
2020/12/27 06:34:28;;;;;;;0.60;0.60;;;6.20;72.20;;;;;;8233272;28;20463;-74
2020/12/27 06:38:33;;;;;;;1.00;0.77;;;6.20;72.20;;;;;;8218292;28;20560;-74
2020/12/27 06:42:43;;;;;;;0.80;0.80;;;6.20;72.00;;;;;;8224202;28;20534;-73
2020/12/27 06:46:54;;;;;;;0.83;0.83;;;6.30;71.70;;;;;;8219182;28;20445;-76
2020/12/27 06:50:57;;;;;;;0.70;0.70;;;6.30;71.80;;;;;;8195469;28;20948;-75
2020/12/27 06:55:00;;;;;;;0.90;0.90;;;6.30;71.60;;;;;;8217444;28;20447;-74
2020/12/27 06:59:07;;;;;;;0.70;0.70;;;6.30;71.60;;;;;;8217317;28;20551;-74
2020/12/27 07:03:21;;;;;;;2.93;0.90;;;6.20;71.70;;;;;;8235884;28;20464;-74
2020/12/27 07:07:45;;;;;;;1.13;1.13;;;6.30;72.00;;;;;;8217716;28;20530;-73
2020/12/27 07:12:01;;;;;;;0.80;0.80;;;6.30;72.30;;;;;;8215281;28;20464;-74
2020/12/27 07:16:09;;;;;;;0.80;0.80;;;6.30;72.40;;;;;;8221124;28;20464;-74
2020/12/27 07:20:15;;;;;;;0.80;0.80;;;6.30;72.70;;;;;;8222620;28;20503;-75
2020/12/27 07:24:27;;;;;;;0.70;0.70;;;6.30;72.70;;;;;;8233631;28;20507;-75
2020/12/27 07:28:29;;;;;;;0.80;0.80;;;6.30;72.50;;;;;;8212852;28;20957;-74
2020/12/27 07:32:49;;;;;;;0.70;0.70;;;6.40;72.50;;;;;;8230393;28;20449;-75
2020/12/27 07:37:03;;;;;;;1.47;1.47;;;6.40;72.40;;;;;;8216791;28;20476;-75
2020/12/27 07:41:04;;;;;;;0.70;0.70;;;6.50;72.30;;;;;;8213641;28;21151;-75
2020/12/27 07:45:10;;;;;;;1.80;1.10;;;6.50;72.40;;;;;;8225109;28;20457;-75
2020/12/27 07:49:31;;;;;;;1.27;1.20;;;6.50;72.40;;;;;;8219635;28;20477;-76
2020/12/27 07:53:48;;;;;;;1.00;1.00;;;6.50;72.50;;;;;;8233595;28;20465;-76
2020/12/27 07:57:51;;;;;;;0.70;0.70;;;6.60;72.50;;;;;;8224963;28;20534;-76
2020/12/27 08:01:52;;;;;;;0.83;0.83;;;6.60;72.30;;;;;;8218288;28;21471;-72
2020/12/27 08:06:03;;;;;;;2.00;1.10;;;6.60;72.20;;;;;;8239741;28;20464;-71
2020/12/27 08:10:26;;;;;;;0.60;0.60;;;6.60;72.30;;;;;;8233180;28;20917;-71
2020/12/27 08:14:30;;;;;;;0.93;0.93;;;6.60;72.30;;;;;;8224973;28;20524;-72
2020/12/27 08:18:35;;;;;;;0.97;0.97;;;6.60;72.30;;;;;;8227796;28;20448;-75
2020/12/27 08:22:37;;;;;;;0.77;0.70;;;6.60;72.40;;;;;;8199189;28;20485;-75
2020/12/27 08:26:44;;;;;;;0.93;0.93;;;6.60;72.30;;;;;;8216313;28;20864;-75
2020/12/27 08:30:50;;;;;;;0.70;0.70;;;6.70;72.30;;;;;;8211563;28;20488;-76
2020/12/27 08:34:56;;;;;;;0.90;0.90;;;6.70;72.00;;;;;;8229003;28;20501;-74
2020/12/27 08:39:03;;;;;;;0.60;0.60;;;6.70;71.50;;;;;;8222727;28;20515;-75
2020/12/27 08:43:29;;;;;;;0.90;0.90;;;6.80;71.40;;;;;;8215841;28;20483;-75
2020/12/27 08:47:52;;;;;;;1.33;0.90;;;6.70;70.80;;;;;;8212906;28;21083;-74
2020/12/27 08:52:18;;;;;;;0.60;0.60;;;6.90;70.90;;;;;;8211350;28;20463;-75
2020/12/27 08:56:25;;;;;;;2.67;0.80;;;6.90;70.60;;;;;;8226860;28;20539;-76
2020/12/27 09:00:37;;;;;;;1.73;0.93;;;6.90;70.70;;;;;;8208058;28;20484;-74
2020/12/27 09:04:38;;;;;;;0.80;0.80;;;6.90;70.60;;;;;;8210565;28;20441;-74
2020/12/27 09:08:58;;;;;;;0.70;0.70;;;7.00;70.80;;;;;;8222699;28;20452;-75
2020/12/27 09:13:11;;;;;;;0.77;0.70;;;7.00;70.90;;;;;;8230620;28;20443;-74
2020/12/27 09:17:17;;;;;;;0.87;0.80;;;7.00;71.00;;;;;;8207433;28;20459;-74
2020/12/27 09:21:23;;;;;;;1.97;0.90;;;7.00;71.30;;;;;;8214642;28;20469;-75
2020/12/27 09:25:26;;;;;;;0.80;0.80;;;7.00;71.50;;;;;;8214315;28;20477;-75
2020/12/27 09:29:29;;;;;;;1.53;1.03;;;7.00;71.60;;;;;;8219918;28;20503;-75
2020/12/27 09:33:39;;;;;;;0.73;0.73;;;7.10;71.80;;;;;;8208178;28;20529;-74
2020/12/27 09:37:47;;;;;;;1.20;1.10;;;7.10;71.70;;;;;;8212569;28;20445;-75
2020/12/27 09:41:47;;;;;;;0.80;0.80;;;7.10;71.50;;;;;;8206890;28;20830;-76
2020/12/27 09:45:52;;;;;;;2.30;0.90;;;7.10;71.10;;;;;;8214783;28;20849;-75
2020/12/27 09:50:08;;;;;;;1.40;1.20;;;7.10;71.10;;;;;;8217392;28;20194;-76
2020/12/27 09:54:18;;;;;;;0.90;0.90;;;7.20;70.70;;;;;;8223083;28;20453;-75
2020/12/27 09:58:25;;;;;;;0.70;0.70;;;7.20;70.40;;;;;;8230285;28;20473;-75
2020/12/27 10:02:29;;;;;;;0.80;0.80;;;7.20;70.10;;;;;;8201031;28;20489;-73
2020/12/27 10:06:41;;;;;;;0.90;0.90;;;7.30;70.00;;;;;;8220429;28;20619;-76
2020/12/27 10:10:45;;;;;;;1.60;1.07;;;7.30;70.30;;;;;;8214693;28;21021;-76
2020/12/27 10:14:46;;;;;;;1.27;1.00;;;7.30;69.90;;;;;;8232802;28;20460;-76
2020/12/27 10:18:50;;;;;;;2.00;1.13;;;7.40;70.20;;;;;;8238857;28;20476;-75
2020/12/27 10:23:01;;;;;;;0.90;0.90;;;7.50;69.70;;;;;;8216939;28;20472;-75
2020/12/27 10:27:04;;;;;;;1.13;1.10;;;7.50;69.30;;;;;;8215633;28;20975;-75
2020/12/27 10:31:09;;;;;;;0.90;0.90;;;7.60;69.30;;;;;;8236963;28;20438;-75
2020/12/27 10:35:10;;;;;;;0.87;0.87;;;7.60;69.10;;;;;;8216415;28;20449;-75
2020/12/27 10:39:12;;;;;;;1.30;1.20;;;7.60;68.90;;;;;;8217356;28;20476;-75
2020/12/27 10:43:18;;;;;;;2.67;2.47;;;7.50;69.40;;;;;;8230886;28;20213;-75
2020/12/27 10:47:31;;;;;;;0.93;0.93;;;7.50;69.30;;;;;;8219109;28;20449;-75
2020/12/27 10:51:39;;;;;;;1.33;1.00;;;7.50;69.30;;;;;;8237174;28;20441;-75
2020/12/27 10:55:48;;;;;;;3.27;1.23;;;7.60;69.30;;;;;;8216436;28;20449;-75
2020/12/27 10:59:57;;;;;;;0.83;0.83;;;7.60;69.30;;;;;;8215344;28;20981;-74
2020/12/27 11:04:02;;;;;;;6.73;1.30;;;7.60;69.50;;;;;;8208174;28;20480;-75
2020/12/27 11:08:06;;;;;;;1.30;1.30;;;7.60;68.90;;;;;;8227063;28;20463;-74
2020/12/27 11:12:06;;;;;;;1.00;1.00;;;7.60;69.60;;;;;;8218608;28;21065;-75
2020/12/27 11:16:11;;;;;;;0.97;0.97;;;7.60;69.70;;;;;;8235553;28;20818;-75
2020/12/27 11:20:13;;;;;;;1.33;0.90;;;7.60;70.10;;;;;;8226849;28;20208;-74
2020/12/27 11:24:22;;;;;;;1.07;1.07;;;7.50;70.60;;;;;;8233398;28;20483;-76
2020/12/27 11:28:23;;;;;;;0.83;0.83;;;7.50;71.60;;;;;;8225517;28;20476;-76
2020/12/27 11:32:34;;;;;;;0.90;0.90;;;7.40;72.20;;;;;;8242025;28;20801;-75
2020/12/27 11:36:40;;;;;;;1.13;1.03;;;7.30;72.60;;;;;;8197963;28;20485;-75
2020/12/27 11:40:47;;;;;;;1.47;0.60;;;7.20;73.50;;;;;;8213343;28;20488;-75
2020/12/27 11:44:52;;;;;;;0.70;0.70;;;7.10;73.80;;;;;;8213358;28;20449;-75
2020/12/27 11:48:55;;;;;;;7.53;0.80;;;7.10;74.70;;;;;;8220724;28;20448;-74
2020/12/27 11:52:58;;;;;;;0.90;0.90;;;7.00;74.40;;;;;;8219272;28;20980;-75
2020/12/27 11:57:02;;;;;;;1.13;1.03;;;6.90;75.20;;;;;;8200369;28;20489;-74
2020/12/27 12:01:02;;;;;;;1.33;1.23;;;6.80;75.50;;;;;;8214909;28;20507;-75
2020/12/27 12:05:03;;;;;;;1.60;1.50;;;6.80;76.40;;;;;;8211589;28;20451;-75
2020/12/27 12:09:06;;;;;;;1.00;1.00;;;6.80;76.30;;;;;;8209179;28;20217;-74
2020/12/27 12:13:07;;;;;;;0.90;0.90;;;6.70;76.30;;;;;;8208911;28;20492;-75
2020/12/27 12:17:08;;;;;;;0.77;0.77;;;6.60;76.80;;;;;;8209231;28;20503;-75
2020/12/27 12:21:13;;;;;;;1.10;1.10;;;6.60;77.30;;;;;;8207798;28;20236;-74
2020/12/27 12:25:13;;;;;;;0.90;0.90;;;6.60;77.30;;;;;;8207800;28;21418;-74
2020/12/27 12:29:14;;;;;;;0.90;0.90;;;6.50;77.10;;;;;;8209237;28;20927;-74
2020/12/27 12:33:22;;;;;;;0.87;0.87;;;6.50;77.10;;;;;;8214874;28;20678;-75
2020/12/27 12:37:36;;;;;;;1.67;1.57;;;6.60;77.40;;;;;;8232726;28;20185;-75
2020/12/27 12:41:38;;;;;;;1.30;1.20;;;6.60;76.90;;;;;;8234161;28;20903;-76
2020/12/27 12:45:42;;;;;;;0.73;0.73;;;6.60;77.20;;;;;;8214549;28;20444;-76
2020/12/27 12:49:44;;;;;;;2.00;1.90;;;6.60;76.80;;;;;;8204461;28;20497;-75
2020/12/27 12:53:45;;;;;;;0.73;0.70;;;6.60;76.50;;;;;;8208471;28;20487;-75
2020/12/27 12:57:53;;;;;;;2.73;1.33;;;6.60;76.00;;;;;;8206278;28;20488;-75
2020/12/27 13:01:54;;;;;;;1.13;0.90;;;6.60;76.30;;;;;;8205971;28;20226;-74
2020/12/27 13:06:00;;;;;;;0.80;0.70;;;6.60;76.10;;;;;;8209503;28;20458;-73
2020/12/27 13:10:11;;;;;;;1.30;1.20;;;6.70;76.30;;;;;;8217020;28;20659;-75
2020/12/27 13:14:16;;;;;;;1.30;1.20;;;6.80;75.70;;;;;;8224010;28;21342;-75
2020/12/27 13:18:20;;;;;;;0.90;0.90;;;6.80;75.80;;;;;;8222600;28;20476;-74
2020/12/27 13:22:21;;;;;;;0.77;0.77;;;6.80;75.10;;;;;;8205541;28;20485;-73
2020/12/27 13:26:23;;;;;;;2.33;2.10;;;6.80;74.90;;;;;;8204122;28;21246;-73
2020/12/27 13:30:24;;;;;;;0.97;0.97;;;6.80;75.80;;;;;;8186882;28;20456;-74
2020/12/27 13:34:25;;;;;;;0.80;0.80;;;6.80;75.20;;;;;;8206600;28;20459;-74
2020/12/27 13:38:27;;;;;;;0.87;0.73;;;6.70;75.90;;;;;;8188191;28;20206;-75
2020/12/27 13:42:28;;;;;;;3.23;1.33;;;6.80;75.20;;;;;;8202676;28;20879;-72
2020/12/27 13:46:41;;;;;;;0.80;0.80;;;6.70;75.70;;;;;;8187703;28;20460;-73
2020/12/27 13:50:43;;;;;;;0.77;0.77;;;6.80;75.50;;;;;;8213021;28;20437;-73
2020/12/27 13:54:44;;;;;;;1.47;1.37;;;6.80;75.40;;;;;;8196177;28;20458;-72
2020/12/27 13:58:45;;;;;;;1.93;1.77;;;6.80;75.50;;;;;;8220204;28;20499;-73
2020/12/27 14:02:46;;;;;;;0.73;0.70;;;6.70;76.40;;;;;;8185039;28;20985;-75
2020/12/27 14:06:47;;;;;;;0.60;0.60;;;6.70;76.40;;;;;;8232188;28;21023;-74
2020/12/27 14:10:53;;;;;;;0.67;0.67;;;6.70;76.90;;;;;;8222904;28;20201;-74
2020/12/27 14:14:56;;;;;;;1.27;0.70;;;6.60;78.20;;;;;;8224066;28;20212;-74
2020/12/27 14:18:57;;;;;;;1.00;1.00;;;6.60;77.80;;;;;;8231041;28;20455;-75
2020/12/27 14:22:57;;;;;;;0.60;0.60;;;6.50;78.70;;;;;;8213205;28;20681;-76
2020/12/27 14:26:58;;;;;;;0.77;0.77;;;6.50;79.10;;;;;;8221470;28;20197;-75
2020/12/27 14:31:03;;;;;;;0.60;0.60;;;6.40;79.20;;;;;;8220168;28;21025;-75
2020/12/27 14:35:16;;;;;;;0.90;0.80;;;6.40;79.40;;;;;;8231624;28;20552;-76
2020/12/27 14:39:16;;;;;;;0.87;0.87;;;6.40;80.00;;;;;;8221650;28;20813;-76
2020/12/27 14:43:17;;;;;;;0.73;0.70;;;6.40;80.10;;;;;;8212033;28;20849;-74
2020/12/27 14:47:18;;;;;;;0.67;0.67;;;6.30;80.50;;;;;;8210720;28;20188;-77
2020/12/27 14:51:33;;;;;;;1.10;0.90;;;6.30;81.00;;;;;;8248642;28;20491;-76
2020/12/27 14:55:35;;;;;;;0.70;0.70;;;6.20;81.40;;;;;;8230460;28;20456;-76
2020/12/27 14:59:35;;;;;;;0.60;0.60;;;6.20;81.50;;;;;;8217590;28;20475;-74
2020/12/27 15:03:38;;;;;;;0.70;0.60;;;6.20;81.50;;;;;;8227850;28;20479;-78
2020/12/27 15:07:38;;;;;;;0.60;0.60;;;6.20;81.40;;;;;;8232930;28;21024;-77
2020/12/27 15:11:39;;;;;;;0.67;0.67;;;6.30;81.40;;;;;;8207582;28;20448;-75
2020/12/27 15:15:40;;;;;;;0.60;0.60;;;6.30;81.60;;;;;;8200743;28;20205;-75
2020/12/27 15:19:40;;;;;;;1.53;0.77;;;6.30;81.70;;;;;;8217876;28;20674;-74
2020/12/27 15:23:41;;;;;;;0.70;0.70;;;6.30;81.70;;;;;;8217534;28;20572;-75
2020/12/27 15:27:42;;;;;;;0.60;0.60;;;6.30;81.60;;;;;;8227608;28;20259;-75
2020/12/27 15:31:46;;;;;;;1.27;0.70;;;6.30;81.90;;;;;;8233356;28;20198;-76
2020/12/27 15:35:55;;;;;;;0.80;0.80;;;6.30;82.30;;;;;;8233951;28;20518;-75
2020/12/27 15:39:59;;;;;;;1.47;0.97;;;6.20;82.20;;;;;;8224926;28;20498;-76
2020/12/27 15:44:00;;;;;;;0.70;0.70;;;6.20;82.40;;;;;;8217261;28;20479;-75
2020/12/27 15:48:04;;;;;;;0.73;0.73;;;6.20;82.80;;;;;;8238086;28;20510;-77
2020/12/27 15:52:07;;;;;;;0.70;0.70;;;6.20;83.10;;;;;;8218871;28;20452;-77
2020/12/27 15:56:19;;;;;;;0.70;0.70;;;6.20;83.10;;;;;;8211436;28;20208;-75
2020/12/27 16:00:23;;;;;;;0.90;0.67;;;6.20;83.30;;;;;;8237772;28;20478;-74
2020/12/27 16:04:24;;;;;;;0.77;0.77;;;6.20;83.60;;;;;;8214121;28;20499;-75
2020/12/27 16:08:31;;;;;;;0.90;0.90;;;6.20;83.30;;;;;;8237305;28;20213;-76
2020/12/27 16:12:31;;;;;;;0.70;0.70;;;6.20;84.00;;;;;;8199027;28;20452;-77
2020/12/27 16:16:33;;;;;;;0.90;0.90;;;6.20;83.90;;;;;;8210811;28;20522;-76
2020/12/27 16:20:34;;;;;;;0.60;0.60;;;6.20;83.90;;;;;;8212423;28;20622;-75
2020/12/27 16:24:37;;;;;;;1.30;0.90;;;6.20;83.90;;;;;;8203320;28;21860;-76
2020/12/27 16:28:38;;;;;;;0.70;0.70;;;6.20;83.40;;;;;;8213891;28;20203;-76
2020/12/27 16:32:45;;;;;;;0.70;0.70;;;6.30;83.60;;;;;;8211577;28;20528;-77
2020/12/27 16:36:59;;;;;;;0.80;0.70;;;6.30;83.70;;;;;;8234703;28;20454;-76
2020/12/27 16:41:00;;;;;;;1.07;0.70;;;6.30;83.90;;;;;;8200768;28;20494;-75
2020/12/27 16:45:04;;;;;;;1.00;1.00;;;6.30;83.70;;;;;;8192564;28;20770;-75
2020/12/27 16:49:04;;;;;;;0.60;0.60;;;6.30;83.70;;;;;;8215636;28;20193;-76
2020/12/27 16:53:05;;;;;;;0.80;0.80;;;6.30;83.20;;;;;;8206429;28;20454;-76
2020/12/27 16:57:18;;;;;;;1.00;1.00;;;6.30;83.20;;;;;;8226383;28;20565;-75
2020/12/27 17:01:26;;;;;;;0.80;0.80;;;6.40;83.10;;;;;;8221798;28;20469;-75
2020/12/27 17:05:26;;;;;;;0.70;0.70;;;6.30;83.00;;;;;;8177139;28;20452;-76
2020/12/27 17:09:39;;;;;;;1.17;1.17;;;6.40;82.80;;;;;;8228612;28;20567;-76
2020/12/27 17:13:41;;;;;;;0.70;0.70;;;6.40;82.70;;;;;;8197644;28;20455;-76
2020/12/27 17:17:48;;;;;;;1.07;0.70;;;6.40;82.90;;;;;;8229452;28;20602;-76
2020/12/27 17:21:53;;;;;;;0.80;0.80;;;6.40;82.40;;;;;;8213374;28;20585;-75
2020/12/27 17:25:56;;;;;;;0.93;0.80;;;6.40;82.10;;;;;;8207635;28;20456;-76
2020/12/27 17:29:56;;;;;;;1.00;0.90;;;6.50;81.80;;;;;;8212386;28;20436;-75
2020/12/27 17:34:01;;;;;;;0.80;0.80;;;6.50;81.50;;;;;;8217674;28;20535;-76
2020/12/27 17:38:06;;;;;;;0.60;0.60;;;6.60;81.00;;;;;;8213216;28;20250;-75
2020/12/27 17:42:15;;;;;;;0.60;0.60;;;6.60;80.50;;;;;;8215067;28;20558;-75
2020/12/27 17:46:20;;;;;;;0.93;0.83;;;6.70;79.60;;;;;;8216970;28;20496;-75
2020/12/27 17:50:22;;;;;;;0.80;0.73;;;6.70;79.60;;;;;;8222589;28;20535;-76
2020/12/27 17:54:26;;;;;;;2.13;1.93;;;6.80;79.80;;;;;;8220537;28;20445;-78
2020/12/27 17:58:28;;;;;;;0.80;0.80;;;6.80;79.20;;;;;;8216600;28;20469;-75
2020/12/27 18:02:32;;;;;;;0.70;0.70;;;6.80;79.50;;;;;;8232381;28;20479;-75
2020/12/27 18:06:40;;;;;;;0.80;0.80;;;6.70;79.10;;;;;;8216928;28;20904;-75
2020/12/27 18:10:41;;;;;;;1.10;1.10;;;6.80;79.30;;;;;;8214691;28;21254;-75
2020/12/27 18:14:45;;;;;;;1.90;0.80;;;6.80;79.40;;;;;;8226122;28;20441;-75
2020/12/27 18:18:46;;;;;;;0.80;0.80;;;6.80;78.70;;;;;;8226411;28;20452;-74
2020/12/27 18:22:47;;;;;;;0.60;0.60;;;6.80;78.60;;;;;;8208431;28;20994;-75
2020/12/27 18:26:48;;;;;;;0.70;0.70;;;6.80;78.40;;;;;;8216956;28;20207;-74
2020/12/27 18:30:51;;;;;;;0.60;0.60;;;6.80;78.30;;;;;;8196421;28;20209;-74
2020/12/27 18:35:01;;;;;;;0.83;0.83;;;6.80;77.80;;;;;;8225823;28;20533;-74
2020/12/27 18:39:13;;;;;;;0.70;0.70;;;6.90;77.60;;;;;;8228872;28;20457;-74
2020/12/27 18:43:14;;;;;;;0.80;0.70;;;6.90;77.70;;;;;;8224380;28;20492;-74
2020/12/27 18:47:15;;;;;;;0.80;0.80;;;6.90;77.40;;;;;;8227041;28;20464;-75
2020/12/27 18:51:18;;;;;;;1.10;1.00;;;6.90;77.20;;;;;;8194729;28;20233;-74
2020/12/27 18:55:18;;;;;;;1.63;0.90;;;6.90;77.20;;;;;;8210600;28;20315;-75
2020/12/27 18:59:23;;;;;;;0.70;0.70;;;6.90;77.50;;;;;;8211678;28;20528;-74
2020/12/27 19:03:23;;;;;;;0.87;0.87;;;7.00;77.30;;;;;;8178142;28;20316;-75
2020/12/27 19:07:24;;;;;;;1.40;1.30;;;7.00;77.50;;;;;;8210123;28;20526;-74
2020/12/27 19:11:31;;;;;;;1.30;1.20;;;6.90;77.90;;;;;;8221152;28;20201;-74
2020/12/27 19:15:39;;;;;;;3.07;2.87;;;6.90;77.90;;;;;;8227825;28;20201;-74
2020/12/27 19:19:42;;;;;;;2.30;2.20;;;6.90;77.90;;;;;;8209503;28;20479;-75
2020/12/27 19:23:45;;;;;;;0.97;0.60;;;6.90;78.30;;;;;;8208158;28;21129;-75
2020/12/27 19:27:48;;;;;;;0.70;0.70;;;6.80;78.30;;;;;;8208034;28;20459;-73
2020/12/27 19:31:50;;;;;;;0.70;0.70;;;6.80;78.70;;;;;;8194744;28;20455;-75
2020/12/27 19:35:52;;;;;;;0.70;0.67;;;6.80;78.40;;;;;;8216309;28;20481;-74
2020/12/27 19:39:55;;;;;;;1.07;0.80;;;6.80;78.70;;;;;;8220000;28;20452;-74
2020/12/27 19:43:56;;;;;;;1.30;0.80;;;6.70;78.40;;;;;;8221114;28;21130;-73
2020/12/27 19:48:01;;;;;;;0.60;0.60;;;6.80;77.90;;;;;;8215091;28;20765;-74
2020/12/27 19:52:01;;;;;;;0.70;0.70;;;6.80;78.40;;;;;;8220784;28;20200;-75
2020/12/27 19:56:07;;;;;;;0.67;0.67;;;6.70;78.00;;;;;;8199031;28;20471;-74
2020/12/27 20:00:07;;;;;;;0.83;0.83;;;6.80;78.20;;;;;;8212038;28;20256;-74
2020/12/27 20:04:19;;;;;;;0.70;0.70;;;6.80;78.20;;;;;;8218515;28;20477;-73
2020/12/27 20:08:19;;;;;;;0.60;0.60;;;6.80;78.20;;;;;;8212836;28;20213;-75
2020/12/27 20:12:21;;;;;;;0.60;0.60;;;6.70;78.60;;;;;;8212967;28;20449;-74
2020/12/27 20:16:22;;;;;;;0.70;0.70;;;6.70;78.30;;;;;;8216820;28;20205;-74
2020/12/27 20:20:28;;;;;;;0.70;0.70;;;6.70;78.00;;;;;;8212699;28;20456;-74
2020/12/27 20:24:33;;;;;;;0.70;0.70;;;6.70;78.00;;;;;;8217442;28;20480;-76
2020/12/27 20:28:34;;;;;;;0.60;0.60;;;6.80;77.70;;;;;;8216825;28;20453;-75
2020/12/27 20:32:35;;;;;;;0.70;0.70;;;6.70;77.40;;;;;;8212604;28;20463;-74
2020/12/27 20:36:41;;;;;;;0.60;0.60;;;6.80;77.30;;;;;;8235519;28;20459;-75
2020/12/27 20:40:45;;;;;;;0.80;0.80;;;6.80;77.30;;;;;;8195186;28;20801;-74
2020/12/27 20:44:49;;;;;;;0.60;0.60;;;6.90;77.00;;;;;;8230916;28;20496;-75
2020/12/27 20:48:51;;;;;;;0.70;0.70;;;6.90;77.00;;;;;;8213407;28;20452;-74
2020/12/27 20:53:02;;;;;;;0.70;0.70;;;6.90;76.80;;;;;;8238168;28;20190;-74
2020/12/27 20:57:09;;;;;;;0.97;0.80;;;6.90;76.70;;;;;;8236707;28;20467;-73
2020/12/27 21:01:10;;;;;;;0.70;0.70;;;6.90;76.60;;;;;;8222332;28;20475;-74
2020/12/27 21:05:11;;;;;;;0.80;0.80;;;6.90;76.40;;;;;;8218902;28;20454;-74
2020/12/27 21:09:19;;;;;;;0.80;0.80;;;7.00;76.60;;;;;;8239609;28;20464;-75
2020/12/27 21:13:25;;;;;;;0.80;0.80;;;7.00;76.70;;;;;;8233028;28;20455;-74
2020/12/27 21:17:38;;;;;;;0.87;0.80;;;7.00;76.20;;;;;;8194658;28;20455;-72
2020/12/27 21:21:46;;;;;;;0.87;0.87;;;7.00;76.50;;;;;;8238980;28;20607;-75
2020/12/27 21:25:46;;;;;;;0.90;0.90;;;7.00;76.50;;;;;;8220019;28;20445;-74
2020/12/27 21:29:55;;;;;;;0.70;0.70;;;7.00;76.40;;;;;;8237529;28;20440;-74
2020/12/27 21:33:58;;;;;;;0.90;0.90;;;7.10;76.20;;;;;;8216691;28;20478;-76
2020/12/27 21:38:07;;;;;;;0.97;0.70;;;7.10;76.30;;;;;;8217125;28;20464;-76